Time;durP1;ratioP1;P1;durP2;ratioP2;P2;SDS_P1;SDS_P2;PMS_P1;PMS_P2;Temp;Humidity;BMP_temperature;BMP_pressure;BME280_temperature;BME280_humidity;BME280_pressure;Samples;Min_cycle;Max_cycle;Signal;HPM_P1;HPM_P2
2021/12/16 04:34:55;;;;;;;1.55;1.45;;;;;;;7.07;100.00;103683.59;5971350;23;20027;31
2021/12/16 04:37:21;;;;;;;1.25;1.15;;;;;;;7.07;100.00;103674.75;4900120;29;20123;-87
2021/12/16 04:39:47;;;;;;;1.85;1.67;;;;;;;7.06;100.00;103679.16;4901687;29;20037;-87
2021/12/16 04:42:14;;;;;;;2.47;1.63;;;;;;;6.99;100.00;103677.28;4900764;29;20056;-87
2021/12/16 04:44:42;;;;;;;1.65;1.55;;;;;;;6.92;100.00;103675.38;4901689;29;20504;-87
2021/12/16 04:47:09;;;;;;;2.08;1.65;;;;;;;6.77;100.00;103674.22;4906086;29;20028;-87
2021/12/16 04:49:35;;;;;;;3.40;1.85;;;;;;;6.70;100.00;103672.31;4902418;29;20099;-86
2021/12/16 04:52:04;;;;;;;2.53;2.20;;;;;;;6.59;100.00;103673.88;4901923;29;20032;-87
2021/12/16 04:54:30;;;;;;;2.25;2.13;;;;;;;6.63;100.00;103673.09;4900507;29;20048;-87
2021/12/16 04:56:58;;;;;;;2.65;2.13;;;;;;;6.74;100.00;103675.06;4901199;29;20118;-86
2021/12/16 04:59:24;;;;;;;1.58;1.33;;;;;;;6.55;100.00;103682.63;4901049;29;20099;-86
2021/12/16 05:01:53;;;;;;;2.83;2.05;;;;;;;6.37;100.00;103685.78;4901229;29;20444;-86
2021/12/16 05:04:19;;;;;;;2.20;2.05;;;;;;;6.23;100.00;103680.25;4901073;29;20036;-86
2021/12/16 05:06:45;;;;;;;2.50;2.10;;;;;;;6.24;100.00;103683.75;4900594;29;20025;-87
2021/12/16 05:09:17;;;;;;;2.75;2.55;;;;;;;6.15;100.00;103679.19;4899945;29;20029;-87
2021/12/16 05:11:43;;;;;;;3.10;1.92;;;;;;;6.10;100.00;103686.13;4901170;29;20044;-87
2021/12/16 05:14:09;;;;;;;2.55;1.02;;;;;;;6.01;100.00;103693.84;4900628;29;20033;-84
2021/12/16 05:16:34;;;;;;;2.03;1.85;;;;;;;5.97;100.00;103680.56;4900041;29;20344;-85
2021/12/16 05:19:00;;;;;;;2.03;1.13;;;;;;;5.87;100.00;103684.75;4900251;29;20081;-89
2021/12/16 05:24:27;;;;;;;1.63;1.52;;;;;;;5.81;100.00;103695.16;4898384;29;20096;-88
2021/12/16 05:26:58;;;;;;;1.73;1.63;;;;;;;5.77;100.00;103698.56;4900711;29;20038;-85
2021/12/16 05:29:24;;;;;;;2.08;1.88;;;;;;;5.75;100.00;103707.31;4892668;29;20112;-85
2021/12/16 05:31:51;;;;;;;2.55;2.35;;;;;;;5.72;100.00;103702.81;4893446;29;20056;-85
2021/12/16 05:34:17;;;;;;;1.63;1.52;;;;;;;5.99;100.00;103702.56;4898898;29;20024;-85
2021/12/16 05:36:42;;;;;;;1.60;1.50;;;;;;;5.91;100.00;103705.06;4913910;29;20044;-85
2021/12/16 05:39:10;;;;;;;1.33;0.98;;;;;;;5.68;100.00;103718.53;4918609;29;20376;-86
2021/12/16 05:41:35;;;;;;;1.55;1.40;;;;;;;5.55;100.00;103727.00;4919406;29;20472;-88
2021/12/16 05:44:01;;;;;;;1.42;1.33;;;;;;;5.50;100.00;103723.41;4918231;29;20111;-86
2021/12/16 05:46:27;;;;;;;1.73;1.63;;;;;;;5.61;100.00;103720.16;4919166;29;20047;-87
2021/12/16 05:48:57;;;;;;;1.40;1.30;;;;;;;5.57;100.00;103720.94;4918770;29;20032;-85
2021/12/16 05:51:30;;;;;;;0.98;0.95;;;;;;;5.48;100.00;103726.00;4918439;29;20053;-86
2021/12/16 05:53:57;;;;;;;2.00;1.90;;;;;;;5.40;100.00;103732.84;4902693;29;20457;-84
2021/12/16 05:56:23;;;;;;;1.25;1.15;;;;;;;5.30;100.00;103735.19;4899726;29;20028;-84
2021/12/16 05:58:49;;;;;;;2.63;2.35;;;;;;;5.22;100.00;103734.09;4899450;29;20029;-85
2021/12/16 06:01:22;;;;;;;1.70;1.30;;;;;;;5.19;100.00;103740.19;4899397;29;20039;-87
2021/12/16 06:03:49;;;;;;;1.35;1.25;;;;;;;5.40;100.00;103729.31;4913429;29;20035;-85
2021/12/16 06:06:15;;;;;;;4.55;1.92;;;;;;;5.29;100.00;103731.69;4917883;29;20031;-85
2021/12/16 06:08:42;;;;;;;2.03;1.50;;;;;;;5.20;100.00;103727.94;4918376;29;20031;-83
2021/12/16 06:13:44;;;;;;;1.63;1.52;;;;;;;5.12;100.00;103735.59;4918838;29;20091;-87
2021/12/16 06:29:33;;;;;;;1.58;1.23;;;;;;;5.11;100.00;103759.28;4918661;29;20060;-84
2021/12/16 06:31:59;;;;;;;1.92;1.80;;;;;;;5.04;100.00;103758.25;4919716;29;20024;-86
2021/12/16 06:34:25;;;;;;;1.85;1.75;;;;;;;5.01;100.00;103755.50;4919522;29;20036;-86
2021/12/16 06:36:50;;;;;;;1.98;1.88;;;;;;;4.95;100.00;103760.63;4919934;29;20132;-87
2021/12/16 06:39:16;;;;;;;1.75;1.40;;;;;;;4.91;100.00;103756.13;4921981;29;20040;-85
2021/12/16 06:41:42;;;;;;;1.30;1.20;;;;;;;4.89;100.00;103756.94;4923607;29;20036;-87
2021/12/16 06:44:34;;;;;;;1.20;1.15;;;;;;;4.89;100.00;103756.94;4915901;29;20057;-86
2021/12/16 06:47:05;;;;;;;1.05;0.85;;;;;;;4.73;100.00;103771.41;4919534;29;20068;-84
2021/12/16 06:49:32;;;;;;;1.80;1.60;;;;;;;4.64;100.00;103765.91;4903695;29;20036;-84
2021/12/16 06:52:02;;;;;;;1.38;1.27;;;;;;;4.62;100.00;103770.22;4900074;29;20029;-84
2021/12/16 07:00:11;;;;;;;2.45;2.25;;;;;;;4.52;100.00;103773.47;4902358;29;20055;-83
2021/12/16 07:02:50;;;;;;;1.50;1.40;;;;;;;4.40;100.00;103787.16;4917768;29;20032;-86
2021/12/16 07:05:38;;;;;;;1.15;1.13;;;;;;;4.38;100.00;103777.44;4918608;29;20067;-91
2021/12/16 07:08:11;;;;;;;1.90;1.67;;;;;;;4.57;100.00;103779.72;4918155;29;20533;-85
2021/12/16 07:10:37;;;;;;;1.10;1.05;;;;;;;4.63;100.00;103783.44;4900994;29;20068;-85
2021/12/16 07:13:08;;;;;;;1.70;1.60;;;;;;;4.63;100.00;103791.34;4917863;29;20032;-86
2021/12/16 07:15:36;;;;;;;1.48;1.38;;;;;;;4.60;100.00;103790.38;4918033;29;20028;-85
2021/12/16 07:18:05;;;;;;;1.92;1.77;;;;;;;4.58;100.00;103797.34;4917951;29;20024;-86
2021/12/16 07:20:48;;;;;;;1.83;1.73;;;;;;;4.49;100.00;103794.44;4917884;29;20067;-85
2021/12/16 07:23:29;;;;;;;1.05;1.05;;;;;;;4.50;100.00;103804.09;4917589;29;20021;-85
2021/12/16 07:25:56;;;;;;;4.45;2.67;;;;;;;4.38;100.00;103809.91;4918665;29;20035;-85
2021/12/16 07:28:29;;;;;;;0.77;0.77;;;;;;;4.31;100.00;103807.03;4917397;29;20429;-85
2021/12/16 07:30:54;;;;;;;1.25;1.15;;;;;;;4.34;100.00;103810.66;4917574;29;20043;-86
2021/12/16 07:33:38;;;;;;;1.90;1.80;;;;;;;4.46;100.00;103808.38;4917930;29;20337;-86
2021/12/16 07:36:04;;;;;;;1.33;1.25;;;;;;;4.33;100.00;103811.50;4918570;29;20041;-85
2021/12/16 07:38:30;;;;;;;2.38;2.22;;;;;;;4.27;100.00;103821.84;4917235;29;20091;-86
2021/12/16 07:41:08;;;;;;;1.60;1.50;;;;;;;4.40;100.00;103821.38;4917169;29;20034;-86
2021/12/16 07:46:27;;;;;;;1.67;1.58;;;;;;;4.31;100.00;103833.34;4904567;29;20044;-86
2021/12/16 07:49:02;;;;;;;1.33;1.25;;;;;;;4.34;100.00;103834.34;4917201;29;20111;-86
2021/12/16 07:51:27;;;;;;;1.50;1.40;;;;;;;4.37;100.00;103834.44;4918126;29;20028;-86
2021/12/16 07:53:53;;;;;;;1.00;1.00;;;;;;;4.37;100.00;103838.78;4916915;29;20099;-86
2021/12/16 07:56:18;;;;;;;1.90;1.80;;;;;;;4.44;100.00;103846.03;4917723;29;20051;-86
2021/12/16 07:58:57;;;;;;;2.15;2.05;;;;;;;4.38;100.00;103849.34;4921153;29;20415;-86
2021/12/16 08:01:24;;;;;;;1.42;1.35;;;;;;;4.36;100.00;103843.19;4920856;29;20039;-86
2021/12/16 08:03:53;;;;;;;1.83;1.73;;;;;;;4.52;100.00;103837.50;4912991;29;20056;-86
2021/12/16 08:06:23;;;;;;;1.58;1.48;;;;;;;4.60;100.00;103840.38;4912738;29;20030;-86
2021/12/16 08:08:56;;;;;;;1.67;1.58;;;;;;;4.60;100.00;103841.25;4920719;29;20087;-86
2021/12/16 08:11:23;;;;;;;0.70;0.70;;;;;;;4.55;100.00;103832.31;4917425;29;20079;-86
2021/12/16 08:13:48;;;;;;;3.08;2.22;;;;;;;4.82;100.00;103840.16;4913075;29;20100;-86
2021/12/16 08:16:14;;;;;;;1.88;1.77;;;;;;;4.79;100.00;103834.78;4919478;29;20472;-86
2021/12/16 08:18:39;;;;;;;1.45;1.33;;;;;;;4.64;100.00;103843.16;4920172;29;20473;-86
2021/12/16 08:21:06;;;;;;;2.08;1.98;;;;;;;4.85;100.00;103832.34;4920449;29;20079;-87
2021/12/16 08:23:32;;;;;;;1.10;1.10;;;;;;;4.84;100.00;103842.84;4921452;29;20103;-86
2021/12/16 08:25:59;;;;;;;0.80;0.80;;;;;;;4.81;100.00;103859.41;4919752;29;20530;-86
2021/12/16 08:28:25;;;;;;;2.42;2.22;;;;;;;4.82;100.00;103855.06;4918800;29;20055;-86
2021/12/16 08:30:52;;;;;;;1.10;1.08;;;;;;;5.32;100.00;103850.34;4921219;29;20079;-86
2021/12/16 08:33:24;;;;;;;2.22;2.05;;;;;;;5.21;100.00;103862.34;4920217;29;20020;-86
2021/12/16 08:35:54;;;;;;;1.80;1.70;;;;;;;5.03;100.00;103874.13;4918947;29;20047;-87
2021/12/16 08:38:32;;;;;;;2.92;1.65;;;;;;;4.95;100.00;103871.22;4921798;29;20036;-87
2021/12/16 08:41:11;;;;;;;2.10;2.00;;;;;;;4.96;100.00;103867.78;4920753;29;20024;-84
2021/12/16 08:43:44;;;;;;;1.17;1.13;;;;;;;5.03;100.00;103879.38;4920876;29;20112;-87
2021/12/16 08:46:19;;;;;;;1.67;1.58;;;;;;;5.00;100.00;103888.06;4920545;29;20399;-87
2021/12/16 08:48:49;;;;;;;2.13;1.95;;;;;;;5.07;100.00;103886.50;4920859;29;20032;-87
2021/12/16 08:51:27;;;;;;;1.02;1.02;;;;;;;5.24;100.00;103898.41;4920113;29;20076;-87
2021/12/16 08:54:06;;;;;;;1.83;1.70;;;;;;;5.20;100.00;103891.28;4920407;29;20032;-87
2021/12/16 08:56:41;;;;;;;2.30;1.83;;;;;;;5.20;100.00;103899.19;4920575;29;20051;-86
2021/12/16 08:59:22;;;;;;;0.90;0.90;;;;;;;5.15;100.00;103908.69;4920645;29;20032;-87
2021/12/16 09:02:00;;;;;;;1.95;1.85;;;;;;;5.10;100.00;103905.03;4920034;29;20028;-87
2021/12/16 09:04:27;;;;;;;2.42;1.92;;;;;;;5.16;100.00;103907.81;4920247;29;20055;-87
2021/12/16 09:06:58;;;;;;;1.65;1.55;;;;;;;5.25;100.00;103911.63;4920078;29;20479;-86
2021/12/16 09:09:23;;;;;;;3.35;2.22;;;;;;;5.32;100.00;103924.13;4918538;29;20163;-87
2021/12/16 09:12:06;;;;;;;1.15;1.10;;;;;;;5.37;100.00;103919.88;4919516;29;20052;-86
2021/12/16 09:14:35;;;;;;;1.38;1.27;;;;;;;5.53;100.00;103926.47;4919983;29;20036;-86
2021/12/16 09:17:09;;;;;;;1.50;1.40;;;;;;;5.75;100.00;103924.41;4919763;29;20020;-86
2021/12/16 09:19:48;;;;;;;1.65;1.50;;;;;;;5.78;100.00;103937.66;4920107;29;20032;-86
2021/12/16 09:22:25;;;;;;;1.67;1.58;;;;;;;5.75;100.00;103945.50;4914571;23;20084;-87
2021/12/16 09:24:56;;;;;;;1.45;1.35;;;;;;;6.01;100.00;103947.13;4900002;29;20072;-87
2021/12/16 09:30:47;;;;;;;2.15;2.05;;;;;;;5.96;100.00;103950.47;4903305;29;20079;-87
2021/12/16 09:33:26;;;;;;;1.23;0.95;;;;;;;6.45;100.00;103963.13;4903335;29;20092;-87
2021/12/16 09:36:00;;;;;;;1.83;1.73;;;;;;;6.39;100.00;103957.72;4903974;29;20020;-86
2021/12/16 09:38:27;;;;;;;1.63;1.52;;;;;;;6.37;100.00;103964.72;4902638;29;20036;-87
2021/12/16 09:40:55;;;;;;;2.22;2.08;;;;;;;6.49;100.00;103965.91;4902469;29;20028;-87
2021/12/16 09:43:47;;;;;;;1.85;1.75;;;;;;;7.13;100.00;103970.88;4902608;29;20119;-87
2021/12/16 09:46:19;;;;;;;2.20;1.90;;;;;;;7.43;100.00;103963.56;4906586;29;20411;-86
2021/12/16 09:48:46;;;;;;;2.08;1.98;;;;;;;7.30;100.00;103980.94;4906440;29;20029;-86
2021/12/16 09:51:21;;;;;;;1.10;1.00;;;;;;;7.37;100.00;103977.56;4921967;29;20013;-87
2021/12/16 09:53:48;;;;;;;2.30;1.85;;;;;;;7.56;100.00;103984.09;4918749;29;20036;-87
2021/12/16 09:56:14;;;;;;;4.25;2.78;;;;;;;7.58;100.00;103987.66;4922509;29;20021;-87
2021/12/16 09:58:43;;;;;;;2.85;2.60;;;;;;;7.61;100.00;103987.75;4921683;29;20028;-87
2021/12/16 10:01:10;;;;;;;2.80;2.58;;;;;;;7.65;100.00;103989.56;4922482;29;20009;-87
2021/12/16 10:03:40;;;;;;;2.70;2.50;;;;;;;8.10;100.00;103994.81;4922366;29;20085;-87
2021/12/16 10:06:06;;;;;;;1.58;1.48;;;;;;;7.98;100.00;103997.22;4921100;29;20040;-87
2021/12/16 10:08:31;;;;;;;1.75;1.65;;;;;;;7.97;100.00;103993.72;4922118;29;20017;-87
2021/12/16 10:10:58;;;;;;;1.92;1.52;;;;;;;8.21;100.00;103995.91;4909636;29;20041;-87
2021/12/16 10:13:36;;;;;;;1.65;1.55;;;;;;;8.30;100.00;103991.69;4899081;29;20509;-86
2021/12/16 10:56:39;;;;;;;5.85;1.83;;;;;;;9.58;100.00;104017.38;6032220;23;20056;-75
2021/12/16 10:59:10;;;;;;;1.52;1.27;;;;;;;9.78;100.00;104017.59;4877070;29;20128;-81
2021/12/16 11:02:14;;;;;;;2.05;1.52;;;;;;;9.74;100.00;104021.13;4879888;29;20029;-81
2021/12/16 11:04:42;;;;;;;3.38;2.47;;;;;;;9.79;100.00;104022.03;4869161;29;20485;-81
2021/12/16 11:07:33;;;;;;;1.83;1.15;;;;;;;9.80;100.00;104027.34;4879650;29;20073;-81
2021/12/16 11:10:25;;;;;;;1.13;1.02;;;;;;;9.63;100.00;104020.09;4879777;29;20036;-82
2021/12/16 11:13:41;;;;;;;3.17;2.25;;;;;;;9.43;100.00;104018.94;4880289;29;20075;-82
2021/12/16 11:16:28;;;;;;;4.15;2.05;;;;;;;9.57;100.00;104015.59;4849831;29;20053;-82
2021/12/16 11:18:56;;;;;;;2.08;1.50;;;;;;;9.73;100.00;104009.59;4879318;29;20029;-82
2021/12/16 11:21:21;;;;;;;2.22;1.88;;;;;;;9.75;100.00;103999.91;4878221;29;20029;-82
2021/12/16 11:23:58;;;;;;;3.95;2.78;;;;;;;10.04;100.00;103989.53;4878997;29;20022;-81
2021/12/16 11:26:32;;;;;;;3.33;2.15;;;;;;;9.90;100.00;103975.25;4878528;29;20111;-80
2021/12/16 11:29:01;;;;;;;4.18;1.75;;;;;;;9.78;100.00;103956.56;4877511;29;20024;-81
2021/12/16 11:31:30;;;;;;;3.25;2.15;;;;;;;9.85;100.00;103942.50;4879952;29;20481;-80
2021/12/16 11:33:59;;;;;;;5.93;2.30;;;;;;;9.74;100.00;103949.47;4882711;29;20508;-80
2021/12/16 11:36:35;;;;;;;6.40;2.38;;;;;;;9.94;100.00;104000.97;4884202;29;20126;-80
2021/12/16 11:39:09;;;;;;;3.65;2.85;;;;;;;10.04;100.00;104019.66;4882534;29;20128;-80
2021/12/16 11:41:44;;;;;;;3.72;2.55;;;;;;;10.12;100.00;104018.00;4882644;29;20119;-80
2021/12/16 11:44:16;;;;;;;3.83;1.98;;;;;;;10.08;100.00;103999.38;4882398;29;20041;-80
2021/12/16 11:46:45;;;;;;;4.72;2.88;;;;;;;10.23;100.00;103980.91;4882227;29;20476;-81
2021/12/16 11:49:14;;;;;;;3.92;1.88;;;;;;;10.16;100.00;103981.75;4881522;29;20127;-79
2021/12/16 11:51:46;;;;;;;4.10;2.70;;;;;;;10.10;100.00;103963.09;4881896;29;20025;-80
2021/12/16 11:54:14;;;;;;;5.32;2.75;;;;;;;10.20;100.00;103956.97;4882874;29;20285;-80
2021/12/16 11:56:43;;;;;;;5.63;2.53;;;;;;;10.26;100.00;103951.72;4884013;29;20084;-80
2021/12/16 11:59:09;;;;;;;3.92;2.67;;;;;;;10.49;100.00;103943.03;4900679;29;20056;-81
2021/12/16 12:01:38;;;;;;;3.10;2.05;;;;;;;10.44;100.00;103923.53;4901218;29;20119;-80
2021/12/16 12:04:07;;;;;;;3.03;1.75;;;;;;;10.47;100.00;103907.59;4901061;29;20025;-79
2021/12/16 12:06:34;;;;;;;2.78;1.73;;;;;;;10.42;100.00;103903.13;4901286;29;20043;-79
2021/12/16 12:09:01;;;;;;;2.90;2.00;;;;;;;10.56;100.00;103896.13;4899113;29;20032;-80
2021/12/16 12:11:33;;;;;;;3.83;1.90;;;;;;;10.51;100.00;103896.09;4899640;29;20047;-80
2021/12/16 12:14:30;;;;;;;2.80;2.30;;;;;;;10.60;100.00;103896.16;4900375;29;20049;-80
2021/12/16 12:17:11;;;;;;;2.75;2.05;;;;;;;10.70;100.00;103891.78;4900230;29;20350;-80
2021/12/16 12:19:47;;;;;;;5.38;2.90;;;;;;;10.88;100.00;103889.22;4900547;29;20032;-79
2021/12/16 12:22:13;;;;;;;3.05;2.15;;;;;;;10.88;100.00;103878.59;4900093;29;20180;-80
2021/12/16 12:24:46;;;;;;;3.13;1.92;;;;;;;10.91;100.00;103878.59;4899628;29;20119;-80
2021/12/16 12:27:25;;;;;;;2.75;1.98;;;;;;;11.04;100.00;103875.09;4900546;29;20033;-80
2021/12/16 12:30:00;;;;;;;4.43;2.80;;;;;;;11.05;100.00;103878.63;4900523;29;20032;-80
2021/12/16 12:32:39;;;;;;;1.80;1.60;;;;;;;11.15;100.00;103872.47;4899625;29;20029;-80
2021/12/16 12:35:12;;;;;;;2.63;2.20;;;;;;;11.10;100.00;103864.47;4900314;29;20042;-81
2021/12/16 12:37:44;;;;;;;2.28;1.48;;;;;;;11.21;100.00;103864.50;4900242;29;20111;-82
2021/12/16 12:40:27;;;;;;;2.85;1.63;;;;;;;11.17;100.00;103857.41;4899684;29;20050;-81
2021/12/16 12:42:54;;;;;;;2.42;1.33;;;;;;;11.49;100.00;103858.34;4900268;29;20097;-82
2021/12/16 12:45:28;;;;;;;1.63;1.10;;;;;;;12.22;100.00;103850.41;4899785;29;20127;-81
2021/12/16 12:47:59;;;;;;;2.33;1.25;;;;;;;14.46;100.00;103850.78;4899173;29;20068;-82
2021/12/16 12:50:34;;;;;;;2.35;1.17;;;;;;;15.77;100.00;103815.91;4900278;29;20036;-82
2021/12/16 12:53:12;;;;;;;3.45;1.20;;;;;;;17.14;100.00;103808.66;4899732;29;20515;-82
2021/12/16 12:55:37;;;;;;;2.28;1.05;;;;;;;18.61;100.00;103793.13;4899856;29;20030;-82
2021/12/16 12:58:15;;;;;;;4.07;1.92;;;;;;;18.73;100.00;103789.22;4899608;29;20497;-79
2021/12/16 13:00:50;;;;;;;3.90;1.50;;;;;;;19.29;100.00;103794.63;4899192;29;20413;-81
2021/12/16 13:03:23;;;;;;;3.97;1.73;;;;;;;19.16;100.00;103792.34;4899844;29;20099;-80
2021/12/16 13:05:58;;;;;;;6.78;1.45;;;;;;;18.96;100.00;103784.00;4899928;29;20033;-81
2021/12/16 13:08:36;;;;;;;2.90;1.20;;;;;;;19.64;100.00;103782.66;4898959;29;20032;-81
2021/12/16 13:11:10;;;;;;;3.05;0.90;;;;;;;19.51;100.00;103792.09;4899462;29;20043;-81
2021/12/16 13:13:44;;;;;;;3.53;1.63;;;;;;;17.92;100.00;103795.06;4899892;29;20115;-81
2021/12/16 13:28:06;;;;;;;1.58;0.75;;;;;;;12.59;100.00;103796.97;4898484;29;20410;-80
2021/12/16 13:30:39;;;;;;;2.30;0.80;;;;;;;12.32;100.00;103804.16;4899701;29;20045;-80
2021/12/16 13:33:19;;;;;;;2.47;1.10;;;;;;;11.92;100.00;103802.50;4899552;29;20028;-80
2021/12/16 13:35:51;;;;;;;6.47;1.40;;;;;;;11.69;100.00;103809.59;4899605;29;20549;-80
2021/12/16 13:38:19;;;;;;;1.45;1.23;;;;;;;11.66;100.00;103812.25;4892271;29;20136;-80
2021/12/16 13:40:48;;;;;;;1.48;1.10;;;;;;;11.47;100.00;103810.44;4898667;29;20032;-80
2021/12/16 13:43:26;;;;;;;2.35;1.40;;;;;;;11.40;100.00;103814.00;4881070;29;20060;-79
2021/12/16 13:58:09;;;;;;;2.85;1.10;;;;;;;11.16;100.00;103829.91;4881154;29;20524;-81
2021/12/16 14:05:47;;;;;;;4.97;2.42;;;;;;;10.73;100.00;103843.97;4880167;29;20104;-81
2021/12/16 14:08:31;;;;;;;1.33;0.95;;;;;;;10.58;100.00;103849.19;4880664;29;20044;-81
2021/12/16 14:11:00;;;;;;;2.10;1.05;;;;;;;10.58;100.00;103855.41;4881190;29;20029;-81
2021/12/16 14:25:22;;;;;;;4.53;1.15;;;;;;;9.95;100.00;103885.91;4897261;29;20069;-82
2021/12/16 14:39:29;;;;;;;2.47;1.48;;;;;;;9.69;100.00;103895.44;4898222;29;20025;-81
2021/12/16 14:49:47;;;;;;;2.45;1.30;;;;;;;9.39;100.00;103911.94;4898498;29;20134;-81
2021/12/16 14:52:19;;;;;;;1.98;1.00;;;;;;;9.31;100.00;103914.47;4898306;29;20259;-81
2021/12/16 14:54:54;;;;;;;0.90;0.65;;;;;;;9.15;100.00;103923.13;4897766;29;20496;-81
2021/12/16 14:57:29;;;;;;;0.60;0.50;;;;;;;9.05;100.00;103925.66;4891211;29;20048;-81
2021/12/16 14:59:57;;;;;;;3.85;1.30;;;;;;;8.93;100.00;103934.38;4883792;29;20024;-81
2021/12/16 15:02:29;;;;;;;1.80;1.55;;;;;;;8.85;100.00;103932.47;4898520;29;20334;-81
2021/12/16 15:04:54;;;;;;;2.67;1.70;;;;;;;8.75;100.00;103931.44;4898370;29;20369;-81
2021/12/16 15:07:24;;;;;;;3.83;2.08;;;;;;;8.76;100.00;103935.88;4898186;29;20092;-81
2021/12/16 15:09:49;;;;;;;3.97;2.63;;;;;;;8.70;100.00;103948.13;4898547;29;20039;-81
2021/12/16 15:42:47;;;;;;;2.65;1.95;;;;;;;7.34;100.00;103985.41;4878931;29;20108;-80
2021/12/16 15:45:17;;;;;;;3.45;2.08;;;;;;;7.23;100.00;104004.56;4879371;29;20036;-80
2021/12/16 15:47:47;;;;;;;;;;;;;;;7.15;100.00;104011.44;4881611;29;20040;-81
2021/12/16 15:50:16;;;;;;;1.75;1.20;;;;;;;7.07;100.00;104005.09;4882791;29;19971;-81
2021/12/16 15:52:45;;;;;;;1.25;1.13;;;;;;;7.05;100.00;104018.28;4883963;29;20108;-80
2021/12/16 15:55:21;;;;;;;1.70;1.60;;;;;;;6.93;100.00;104019.75;4888302;29;20037;-81
2021/12/16 15:57:46;;;;;;;2.85;1.75;;;;;;;6.87;100.00;104032.84;4893022;29;20124;-81
2021/12/16 16:00:19;;;;;;;1.92;1.13;;;;;;;6.83;100.00;104038.88;4880387;29;20109;-81
2021/12/16 16:02:46;;;;;;;2.78;1.58;;;;;;;6.74;100.00;104044.84;4880258;29;20500;-81
2021/12/16 16:05:12;;;;;;;3.08;2.17;;;;;;;6.61;100.00;104050.69;4883044;29;20474;-81
2021/12/16 16:07:40;;;;;;;1.70;1.58;;;;;;;6.49;100.00;104060.06;4882454;29;20112;-81
2021/12/16 16:10:08;;;;;;;4.65;1.35;;;;;;;6.51;100.00;104066.28;4884312;29;20128;-81
2021/12/16 16:12:34;;;;;;;1.83;1.60;;;;;;;6.47;100.00;104065.31;4886332;29;20033;-81
2021/12/16 16:15:16;;;;;;;3.38;1.00;;;;;;;6.48;100.00;104082.91;4879552;29;20073;-81
2021/12/16 16:17:59;;;;;;;2.63;1.40;;;;;;;6.36;100.00;104092.28;4880058;29;20029;-81
2021/12/16 16:20:28;;;;;;;2.08;1.58;;;;;;;6.33;100.00;104090.47;4896433;29;20376;-81
2021/12/16 16:22:54;;;;;;;;;;;;;;;6.30;100.00;104092.13;4894126;29;20070;-81
2021/12/16 16:25:19;;;;;;;3.80;1.83;;;;;;;6.27;100.00;104102.59;4900622;29;20108;-80
2021/12/16 16:27:45;;;;;;;2.13;1.42;;;;;;;6.23;100.00;104113.06;4900762;29;20379;-81
2021/12/16 16:30:11;;;;;;;2.63;1.40;;;;;;;6.18;100.00;104114.69;4884560;29;20104;-80
2021/12/16 16:33:01;;;;;;;1.58;1.10;;;;;;;6.11;100.00;104115.34;4882068;29;20029;-81
2021/12/16 16:35:28;;;;;;;1.33;1.00;;;;;;;6.07;100.00;104120.50;4881654;29;20033;-80
2021/12/16 16:38:20;;;;;;;4.28;1.70;;;;;;;6.04;100.00;104130.97;4882869;29;20072;-80
2021/12/16 16:40:50;;;;;;;0.90;0.90;;;;;;;5.95;100.00;104134.28;4898841;29;20040;-80
2021/12/16 16:43:32;;;;;;;1.73;1.63;;;;;;;5.90;100.00;104127.06;4900767;29;20020;-82
2021/12/16 16:46:03;;;;;;;6.78;1.58;;;;;;;5.86;100.00;104135.75;4900263;29;20120;-80
2021/12/16 16:51:23;;;;;;;2.53;1.85;;;;;;;5.83;100.00;104143.56;4878291;29;20037;-81
2021/12/16 16:54:18;;;;;;;1.17;1.08;;;;;;;5.79;100.00;104150.47;4881794;29;20025;-81
2021/12/16 16:56:53;;;;;;;2.08;1.65;;;;;;;5.80;100.00;104146.06;4884205;29;22116;-82
2021/12/16 16:59:55;;;;;;;3.10;2.13;;;;;;;5.80;100.00;104144.31;4900206;29;20096;-82
2021/12/16 17:02:47;;;;;;;1.35;1.25;;;;;;;5.75;100.00;104152.97;4890317;29;20425;-81
2021/12/16 17:05:27;;;;;;;2.35;0.90;;;;;;;5.78;100.00;104158.34;4899748;29;20573;-81
2021/12/16 17:08:16;;;;;;;2.33;1.48;;;;;;;5.70;100.00;104158.13;4903315;29;20071;-82
2021/12/16 17:10:48;;;;;;;2.47;1.67;;;;;;;5.64;100.00;104165.81;4900474;29;20035;-82
2021/12/16 17:13:23;;;;;;;1.13;1.02;;;;;;;5.56;100.00;104167.31;4899922;29;20065;-82
2021/12/16 17:18:30;;;;;;;1.20;1.08;;;;;;;5.48;100.00;104168.84;4902779;29;20310;-82
2021/12/16 17:20:59;;;;;;;3.03;1.48;;;;;;;5.54;100.00;104168.13;4897950;29;20056;-81
2021/12/16 17:23:32;;;;;;;1.98;1.25;;;;;;;5.48;100.00;104163.59;4899681;29;20484;-83
2021/12/16 17:25:59;;;;;;;0.85;0.85;;;;;;;5.45;100.00;104174.00;4900718;29;20071;-83
2021/12/16 17:28:27;;;;;;;1.30;1.25;;;;;;;5.39;100.00;104163.28;4898764;29;20513;-81
2021/12/16 17:31:08;;;;;;;2.10;1.45;;;;;;;5.26;100.00;104169.03;4899183;29;20040;-82
2021/12/16 17:33:36;;;;;;;1.45;1.30;;;;;;;5.29;100.00;104166.47;4899707;29;20029;-81
2021/12/16 17:36:03;;;;;;;1.45;1.20;;;;;;;5.27;100.00;104168.16;4898679;29;20040;-82
2021/12/16 17:38:48;;;;;;;3.88;2.83;;;;;;;5.28;100.00;104172.56;4899404;29;20033;-82
2021/12/16 17:41:13;;;;;;;2.08;1.42;;;;;;;5.27;100.00;104178.72;4899829;29;20064;-82
2021/12/16 17:43:44;;;;;;;3.50;1.75;;;;;;;5.26;100.00;104178.66;4899929;29;20060;-83
2021/12/16 17:46:19;;;;;;;1.77;1.63;;;;;;;5.22;100.00;104166.22;4899586;29;20107;-83
2021/12/16 17:48:57;;;;;;;2.85;1.45;;;;;;;5.22;100.00;104169.75;4899564;29;20029;-82
2021/12/16 17:54:56;;;;;;;1.30;1.20;;;;;;;5.03;100.00;104183.16;4769559;30;20089;-83
2021/12/16 18:01:21;;;;;;;0.80;0.80;;;;;;;5.00;100.00;104183.06;4878251;29;20085;-83
2021/12/16 18:03:49;;;;;;;2.33;1.02;;;;;;;4.92;100.00;104184.56;4873690;29;20056;-82
2021/12/16 18:06:42;;;;;;;4.30;1.42;;;;;;;4.92;100.00;104189.81;4899351;29;20037;-84
2021/12/16 18:09:35;;;;;;;2.17;1.35;;;;;;;4.95;100.00;104194.31;4881897;29;20056;-83
2021/12/16 18:12:51;;;;;;;1.60;1.08;;;;;;;4.90;100.00;104196.78;4863575;29;20028;-83
2021/12/16 18:15:49;;;;;;;2.08;1.95;;;;;;;4.85;100.00;104197.47;4883270;29;20115;-86
2021/12/16 18:18:16;;;;;;;2.53;2.33;;;;;;;4.86;100.00;104205.44;4897382;29;20066;-82
2021/12/16 18:20:50;;;;;;;1.80;1.60;;;;;;;4.93;100.00;104203.91;4895729;29;20036;-81
2021/12/16 18:23:22;;;;;;;0.75;0.75;;;;;;;4.96;100.00;104204.00;4895530;29;20058;-83
2021/12/16 18:25:50;;;;;;;1.73;1.63;;;;;;;4.93;100.00;104217.06;4897018;29;20040;-82
2021/12/16 18:28:29;;;;;;;1.70;0.75;;;;;;;4.85;100.00;104216.81;4898155;29;20031;-81
2021/12/16 18:31:06;;;;;;;1.55;1.45;;;;;;;4.82;100.00;104216.72;4896360;29;20084;-82
2021/12/16 18:33:40;;;;;;;1.75;1.65;;;;;;;4.80;100.00;104220.09;4896467;29;20520;-81
2021/12/16 18:36:14;;;;;;;2.45;2.25;;;;;;;4.80;100.00;104214.84;4896951;29;20036;-84
2021/12/16 18:38:55;;;;;;;3.17;2.95;;;;;;;4.77;100.00;104210.38;4896498;29;20059;-83
2021/12/16 18:41:30;;;;;;;3.13;2.90;;;;;;;4.75;100.00;104212.06;4897929;29;20020;-83
2021/12/16 18:43:56;;;;;;;2.55;2.30;;;;;;;4.71;100.00;104223.34;4898239;29;20052;-83
2021/12/16 18:46:23;;;;;;;3.50;2.47;;;;;;;4.67;100.00;104231.94;4897692;29;20036;-84
2021/12/16 18:52:29;;;;;;;2.35;2.17;;;;;;;4.53;100.00;104226.22;5266697;23;20106;-86
2021/12/16 18:55:16;;;;;;;2.58;2.17;;;;;;;4.54;100.00;104232.34;4917617;29;20051;-85
2021/12/16 18:57:58;;;;;;;1.77;1.67;;;;;;;4.51;100.00;104241.03;4936498;29;20024;-85
